x

Smith Island, Wa (sisw1) Weather Station

4:00 - Wed 2nd Sep 2015 All times are PDT. -7 hours from GMT.

  • Wind
    16mph, 20mph gusts
  • Air Temp 54°f
  • Sea Pressure 1013.2mb
  • Smith Island, Wa
  • Smith Island, Wa

More Historic Weather Station data

Upgrade to MSW Pro to gain access to the past 30 days of data for over 8000 Wavebouys and Weather Stations around the globe.

Join Pro

Comparision Forecast

View Surf forecast
   
mer. 09/02 4:00 16 20 mph 1013.2mb 54f
3:00 3 5 mph 1012.4mb 63f
2:00 8 9 mph 1012mb 60f
1:00 8 10 mph 1012.2mb 62f
12:00 14 15 mph 1012.3mb 62f
11:00 11 13 mph 1012.2mb 59f
10:00 15 16 mph 1011.9mb 55f
9:00 8 9 mph 1011.9mb 55f
8:00 11 14 mph 1011.3mb 53f
7:00 9 10 mph 1010.6mb 52f
6:00 6 7 mph 1009.9mb 54f
5:00 7 8 mph 1009.5mb 53f
4:00 10
mph
1009.2mb 54f
3:00 9 10 mph 1009.1mb 54f
2:00 9 11 mph 1008.5mb 54f
1:00 14 17 mph 1008.3mb 55f
12:00 16 17 mph 1007.8mb 55f
mar. 09/01 11:00 17 21 mph 1007.8mb 55f
10:00 5 7 mph 1008.1mb 55f
9:00 7 8 mph 1007.8mb 55f
8:00 10 11 mph 1007.1mb 55f
7:00 3 5 mph 1007.5mb 56f
6:00 10 11 mph 1008mb 55f
5:00 7 8 mph 1008mb 59f
4:00 10 11 mph 1008.6mb 58f
3:00 9
mph
1009.2mb 59f
2:00 10 11 mph 1009.5mb 57f
1:00 11 13 mph 1009.9mb 57f
12:00 10 13 mph 1009.9mb 58f
11:00 8
mph
1010.2mb 59f
10:00 6
mph
1010.3mb 56f
9:00 10 11 mph 1010.6mb 55f
8:00 11
mph
1010.5mb 55f
7:00 9 11 mph 1010.7mb 54f
6:00 14 15 mph 1010.7mb 55f
5:00 15 16 mph 1011mb 55f
4:00 14 17 mph 1010.7mb 56f
3:00 3 5 mph 1010.7mb 56f
2:00 20 22 mph 1009.7mb 58f
1:00 23 25 mph 1009.3mb 58f
12:00 18 21 mph 1009.7mb 56f
lun. 08/31 11:00 6
mph
1010.7mb 55f
10:00 9 10 mph 1010.3mb 55f
9:00 7
mph
1010.4mb 55f
8:00 9
mph
1010.1mb 57f
7:00 9 10 mph 1010.6mb 57f
6:00 3 5 mph 1011.2mb 58f
5:00 6
mph
1011.5mb 58f
4:00 13 14 mph 1011.7mb 57f
3:00 13 14 mph 1012.1mb 58f
2:00 20
mph
1012.1mb 58f
1:00 24 26 mph 1011.9mb 59f
12:00 22 23 mph 1012.1mb 59f
11:00 21 22 mph 1012mb 58f
10:00 18 21 mph 1011.9mb 57f
9:00 23 24 mph 1012.1mb 57f
8:00 20 21 mph 1012.1mb 57f
7:00 24 28 mph 1012mb 57f
6:00 26 28 mph 1011.6mb 57f
5:00 24 26 mph 1011.4mb 57f
4:00 26 28 mph 1011.5mb 58f
3:00 26 29 mph 1011.8mb 58f
2:00 28 30 mph 1011.5mb 58f
1:00 29 31 mph 1011.3mb 58f
12:00 21 23 mph 1011.9mb 58f
dim. 08/30 11:00 17 18 mph 1012.3mb 57f
10:00 13
mph
1013mb 56f
9:00 7 8 mph 1013.6mb 60f
8:00 14
mph
1013.4mb 58f
7:00 13
mph
1013.1mb 57f
6:00 7
mph
1012.9mb 64f
5:00 11 13 mph 1012.9mb 64f
4:00 13 14 mph 1012.9mb 64f
3:00 8 11 mph 1013.1mb 66f
2:00 6 7 mph 1012.8mb 66f
1:00 9 10 mph 1012.6mb 64f
12:00 11 13 mph 1012.3mb 62f
11:00 15 16 mph 1012.1mb 58f
10:00 11 13 mph 1011.4mb 57f
9:00 14 15 mph 1010.4mb 55f
8:00 9
mph
1009.8mb 55f
7:00 8 9 mph 1008.8mb 54f
6:00 8
mph
1008.3mb 55f
5:00 11
mph
1007.4mb 54f
4:00 11 13 mph 1007.9mb 54f
3:00 10 11 mph 1007.2mb 54f
2:00 7 8 mph 1006.7mb 55f
1:00 8 9 mph 1006.4mb 55f